Time;durP1;ratioP1;P1;durP2;ratioP2;P2;SDS_P1;SDS_P2;PMS_P1;PMS_P2;Temp;Humidity;BMP_temperature;BMP_pressure;BME280_temperature;BME280_humidity;BME280_pressure;Samples;Min_cycle;Max_cycle;Signal;HPM_P1;HPM_P2
2023/08/30 00:00:53;;;;;;;10.63;4.15;;;18.00;99.90;;;;;;5115325;28;20020;-70
2023/08/30 00:03:19;;;;;;;12.68;4.30;;;18.10;99.90;;;;;;5114782;28;20630;-70
2023/08/30 00:05:45;;;;;;;13.40;3.88;;;18.10;99.90;;;;;;5114913;28;20091;-70
2023/08/30 00:08:13;;;;;;;9.13;3.70;;;18.20;99.90;;;;;;5114848;28;20467;-70
2023/08/30 00:10:39;;;;;;;8.52;3.88;;;18.10;99.90;;;;;;5114886;28;20111;-70
2023/08/30 00:13:05;;;;;;;12.30;3.75;;;18.20;99.90;;;;;;5114827;28;20066;-70
2023/08/30 00:15:31;;;;;;;8.90;3.08;;;18.10;99.90;;;;;;5114948;28;20110;-70
2023/08/30 00:17:56;;;;;;;11.32;3.38;;;18.10;99.90;;;;;;5114532;28;20023;-69
2023/08/30 00:20:23;;;;;;;15.05;4.43;;;18.00;99.90;;;;;;5114756;28;20469;-69
2023/08/30 00:22:49;;;;;;;10.75;4.10;;;18.00;99.90;;;;;;5114806;28;20024;-70
2023/08/30 00:25:16;;;;;;;9.15;2.78;;;18.00;99.90;;;;;;5114597;28;20469;-70
2023/08/30 00:27:41;;;;;;;18.83;4.30;;;18.00;99.90;;;;;;5114647;28;20032;-69
2023/08/30 00:30:09;;;;;;;9.63;3.22;;;18.00;99.90;;;;;;5114879;28;20028;-70
2023/08/30 00:32:35;;;;;;;12.57;3.72;;;18.00;99.90;;;;;;5114564;28;20062;-69
2023/08/30 00:35:02;;;;;;;13.02;4.40;;;18.10;99.90;;;;;;5096435;28;20032;-69
2023/08/30 00:37:27;;;;;;;9.40;3.85;;;18.20;99.90;;;;;;5096424;28;20058;-70
2023/08/30 00:39:53;;;;;;;18.13;3.80;;;18.10;99.90;;;;;;5114370;28;20047;-69
2023/08/30 00:42:19;;;;;;;10.75;4.13;;;18.00;99.90;;;;;;5096422;28;20027;-69
2023/08/30 00:44:45;;;;;;;9.45;3.63;;;18.10;99.90;;;;;;5114698;28;20030;-70
2023/08/30 00:47:11;;;;;;;11.35;3.40;;;18.10;99.90;;;;;;5096225;28;20024;-70
2023/08/30 00:49:37;;;;;;;11.82;4.15;;;18.00;99.90;;;;;;5096241;28;20077;-70
2023/08/30 00:52:07;;;;;;;13.32;4.05;;;17.90;99.90;;;;;;5116530;28;20058;-69
2023/08/30 00:54:34;;;;;;;8.85;3.33;;;17.80;99.90;;;;;;5118244;28;20032;-69
2023/08/30 00:57:01;;;;;;;9.90;3.42;;;17.90;99.90;;;;;;5118350;28;20077;-70
2023/08/30 00:59:28;;;;;;;9.75;3.55;;;18.00;99.90;;;;;;5118353;28;20036;-69
2023/08/30 01:01:55;;;;;;;10.43;4.20;;;18.00;99.90;;;;;;5099921;28;20036;-69
2023/08/30 01:04:22;;;;;;;8.65;3.78;;;17.80;99.90;;;;;;5118307;28;20028;-69
2023/08/30 01:06:49;;;;;;;10.05;4.10;;;17.80;99.90;;;;;;5118144;28;20055;-69
2023/08/30 01:09:16;;;;;;;13.18;4.50;;;17.90;99.90;;;;;;5118135;28;20042;-69
2023/08/30 01:12:14;;;;;;;15.18;4.53;;;17.90;99.90;;;;;;5118315;28;20027;-70
2023/08/30 01:15:00;;;;;;;9.18;3.70;;;17.80;99.90;;;;;;5117952;28;20036;-69
2023/08/30 01:17:27;;;;;;;7.07;3.70;;;17.90;99.90;;;;;;5117585;28;20039;-69
2023/08/30 01:20:17;;;;;;;6.70;3.13;;;17.80;99.90;;;;;;5118036;28;20040;-69
2023/08/30 01:23:05;;;;;;;10.20;3.55;;;17.80;99.90;;;;;;5133496;27;20027;-69
2023/08/30 01:25:52;;;;;;;8.77;3.45;;;17.80;99.90;;;;;;5099512;28;20051;-69
2023/08/30 01:28:22;;;;;;;10.20;2.83;;;17.80;99.90;;;;;;5099506;28;20059;-69
2023/08/30 01:30:48;;;;;;;10.50;3.72;;;17.70;99.90;;;;;;5099454;28;20084;-70
2023/08/30 01:33:17;;;;;;;9.48;3.60;;;17.80;99.90;;;;;;5099268;28;20032;-69
2023/08/30 01:35:43;;;;;;;8.90;4.03;;;17.90;99.90;;;;;;5117489;28;20549;-69
2023/08/30 01:38:10;;;;;;;8.27;3.30;;;18.00;99.90;;;;;;5117500;28;20016;-69
2023/08/30 01:40:39;;;;;;;10.52;4.10;;;18.10;99.90;;;;;;5099379;28;20381;-69
2023/08/30 01:43:07;;;;;;;9.75;3.60;;;18.00;99.90;;;;;;5117479;28;20020;-70
2023/08/30 01:45:38;;;;;;;11.30;3.30;;;17.70;99.90;;;;;;5117633;28;20062;-70
2023/08/30 01:48:05;;;;;;;13.05;4.75;;;17.40;99.90;;;;;;5099119;28;20039;-70
2023/08/30 01:50:32;;;;;;;15.50;7.88;;;17.50;99.90;;;;;;5117245;28;20036;-70
2023/08/30 01:52:59;;;;;;;10.82;3.92;;;17.50;99.90;;;;;;5098683;28;20689;-70
2023/08/30 01:55:28;;;;;;;10.00;3.45;;;17.60;99.90;;;;;;5117403;28;20110;-70
2023/08/30 01:57:54;;;;;;;11.73;3.90;;;17.60;99.90;;;;;;5098788;28;20028;-70
2023/08/30 02:00:20;;;;;;;9.27;4.03;;;17.50;99.90;;;;;;5098976;28;20118;-70
2023/08/30 02:02:48;;;;;;;10.00;3.63;;;17.60;99.90;;;;;;5116857;28;20024;-70
2023/08/30 02:05:13;;;;;;;9.75;3.70;;;17.60;99.90;;;;;;5116862;28;20474;-69
2023/08/30 02:07:42;;;;;;;10.68;3.78;;;17.60;99.90;;;;;;5098757;28;20054;-69
2023/08/30 02:10:17;;;;;;;11.80;4.13;;;17.60;99.90;;;;;;5117151;28;20027;-70
2023/08/30 02:12:53;;;;;;;9.55;3.60;;;17.60;99.90;;;;;;5116777;28;20035;-70
2023/08/30 02:15:19;;;;;;;10.60;3.58;;;17.60;99.90;;;;;;5116729;28;20514;-70
2023/08/30 02:17:46;;;;;;;9.00;3.90;;;17.40;99.90;;;;;;5098565;28;20024;-70
2023/08/30 02:20:12;;;;;;;11.82;4.22;;;17.40;99.90;;;;;;5098234;28;20028;-70
2023/08/30 02:22:38;;;;;;;17.30;3.85;;;17.40;99.90;;;;;;5116802;28;20030;-70
2023/08/30 02:25:07;;;;;;;11.52;4.25;;;17.40;99.90;;;;;;5116980;28;20046;-70
2023/08/30 02:27:37;;;;;;;12.25;4.30;;;17.40;99.90;;;;;;5116596;28;20030;-70
2023/08/30 02:30:03;;;;;;;11.95;4.20;;;17.40;99.90;;;;;;5116566;28;20389;-70
2023/08/30 02:32:29;;;;;;;14.43;4.28;;;17.40;99.90;;;;;;5116443;28;20090;-70
2023/08/30 02:34:56;;;;;;;13.75;4.07;;;17.40;99.90;;;;;;5116379;28;20059;-70
2023/08/30 02:37:22;;;;;;;7.88;3.58;;;17.50;99.90;;;;;;5098219;28;20032;-69
2023/08/30 02:39:50;;;;;;;9.38;3.55;;;17.50;99.90;;;;;;5116341;28;20020;-69
2023/08/30 02:42:16;;;;;;;10.40;4.25;;;17.50;99.90;;;;;;5116298;28;20049;-70
2023/08/30 02:44:42;;;;;;;8.20;3.67;;;17.40;99.90;;;;;;5097945;28;20019;-69
2023/08/30 02:47:08;;;;;;;14.38;4.13;;;17.30;99.90;;;;;;5097927;28;20389;-70
2023/08/30 02:49:34;;;;;;;16.67;3.88;;;17.20;99.90;;;;;;5116604;28;20020;-70
2023/08/30 02:52:00;;;;;;;13.93;4.95;;;17.10;99.90;;;;;;5116018;28;20105;-69
2023/08/30 02:54:26;;;;;;;12.30;4.93;;;16.90;99.90;;;;;;5115982;28;20039;-69
2023/08/30 02:56:51;;;;;;;10.98;4.60;;;17.00;99.90;;;;;;5116033;28;20031;-70
2023/08/30 02:59:17;;;;;;;15.57;4.72;;;17.20;99.90;;;;;;5097782;28;20106;-69
2023/08/30 03:01:44;;;;;;;12.55;4.82;;;17.40;99.90;;;;;;5097498;28;20028;-69
2023/08/30 03:04:12;;;;;;;17.58;4.97;;;17.40;99.90;;;;;;5097656;28;20050;-69
2023/08/30 03:06:38;;;;;;;15.88;4.80;;;17.30;99.90;;;;;;5115824;28;20028;-69
2023/08/30 03:09:06;;;;;;;14.55;4.75;;;17.40;99.90;;;;;;5097438;28;20122;-70
2023/08/30 03:11:34;;;;;;;12.00;4.45;;;17.50;99.90;;;;;;5097395;28;20080;-69
2023/08/30 03:14:01;;;;;;;12.68;4.07;;;17.60;99.90;;;;;;5096599;28;20198;-69
2023/08/30 03:16:27;;;;;;;11.82;3.75;;;17.70;99.90;;;;;;5097392;28;20763;-69
2023/08/30 03:18:54;;;;;;;11.30;3.47;;;17.70;99.90;;;;;;5097473;28;20077;-69
2023/08/30 03:21:20;;;;;;;11.82;4.30;;;17.60;99.90;;;;;;5097402;28;20028;-69
2023/08/30 03:23:46;;;;;;;7.78;3.47;;;17.60;99.90;;;;;;5097194;28;20027;-70
2023/08/30 03:26:14;;;;;;;9.63;4.10;;;17.50;99.90;;;;;;5115633;28;20556;-69
2023/08/30 03:28:40;;;;;;;12.75;3.78;;;17.40;99.90;;;;;;5097239;28;20028;-69
2023/08/30 03:31:20;;;;;;;12.80;3.85;;;17.40;99.90;;;;;;5115286;28;20028;-70
2023/08/30 03:33:47;;;;;;;12.30;3.78;;;17.50;99.90;;;;;;5115363;28;20030;-70
2023/08/30 03:36:16;;;;;;;13.02;3.75;;;17.50;99.90;;;;;;5097144;28;20019;-70
2023/08/30 03:38:43;;;;;;;10.88;3.63;;;17.60;99.90;;;;;;5096754;28;20035;-69
2023/08/30 03:41:10;;;;;;;15.65;3.83;;;17.50;99.90;;;;;;5097033;28;20077;-70
2023/08/30 03:43:36;;;;;;;9.88;2.85;;;17.50;99.90;;;;;;5097029;28;20036;-70
2023/08/30 03:46:05;;;;;;;9.32;3.88;;;17.50;99.90;;;;;;5096878;28;20366;-70
2023/08/30 03:48:31;;;;;;;8.45;3.53;;;17.50;99.90;;;;;;5097037;28;20042;-70
2023/08/30 03:50:58;;;;;;;8.23;3.35;;;17.50;99.90;;;;;;5096499;28;20028;-69
2023/08/30 03:53:24;;;;;;;12.15;3.75;;;17.50;99.90;;;;;;5115049;28;20051;-69
2023/08/30 03:55:51;;;;;;;11.38;3.40;;;17.50;99.90;;;;;;5097006;28;20024;-69
2023/08/30 03:58:18;;;;;;;10.57;3.50;;;17.30;99.90;;;;;;5096707;28;20023;-69
2023/08/30 04:00:45;;;;;;;11.13;3.70;;;17.30;99.90;;;;;;5096748;28;20028;-69
2023/08/30 04:03:12;;;;;;;9.50;3.50;;;17.30;99.90;;;;;;5115110;28;20536;-69
2023/08/30 04:05:38;;;;;;;9.00;3.33;;;17.40;99.90;;;;;;5096451;28;20059;-70
2023/08/30 04:08:06;;;;;;;20.48;4.35;;;17.30;99.90;;;;;;5096661;28;20079;-70
2023/08/30 04:10:53;;;;;;;16.85;5.20;;;17.40;99.90;;;;;;5115062;28;20114;-69
2023/08/30 04:13:19;;;;;;;16.70;6.43;;;17.40;99.90;;;;;;5096287;28;20480;-70
2023/08/30 04:15:45;;;;;;;24.65;9.60;;;17.40;99.90;;;;;;5115292;28;20106;-70
2023/08/30 04:18:11;;;;;;;16.80;5.43;;;17.50;99.90;;;;;;5096620;28;20493;-69
2023/08/30 04:20:46;;;;;;;10.88;4.93;;;17.40;99.90;;;;;;5096499;28;20028;-69
2023/08/30 04:23:13;;;;;;;10.40;3.75;;;17.40;99.90;;;;;;5096514;28;20062;-70
2023/08/30 04:25:39;;;;;;;13.07;4.20;;;17.20;99.90;;;;;;5098068;28;20430;-70
2023/08/30 04:28:05;;;;;;;12.70;4.95;;;17.20;99.90;;;;;;5100595;28;20031;-70
2023/08/30 04:30:31;;;;;;;20.00;5.68;;;17.30;99.90;;;;;;5100447;28;20392;-70
2023/08/30 04:32:57;;;;;;;10.38;4.32;;;17.50;99.90;;;;;;5100522;28;20043;-69
2023/08/30 04:35:23;;;;;;;14.02;4.05;;;17.60;99.90;;;;;;5100317;28;20059;-70
2023/08/30 04:37:49;;;;;;;15.52;5.07;;;17.60;99.90;;;;;;5118725;28;20255;-70
2023/08/30 04:40:15;;;;;;;12.60;5.00;;;17.50;99.90;;;;;;5100330;28;20022;-70
2023/08/30 04:42:41;;;;;;;17.75;5.80;;;17.50;99.90;;;;;;5100228;28;20500;-69
2023/08/30 04:45:09;;;;;;;11.45;4.70;;;17.60;99.90;;;;;;5100559;28;20070;-69
2023/08/30 04:47:35;;;;;;;19.77;5.47;;;17.50;99.90;;;;;;5100293;28;20366;-69
2023/08/30 04:50:03;;;;;;;10.95;4.68;;;17.40;99.90;;;;;;5100187;28;20038;-70
2023/08/30 04:52:29;;;;;;;15.85;4.65;;;17.40;99.90;;;;;;5100140;28;20492;-69
2023/08/30 04:54:56;;;;;;;12.07;4.53;;;17.40;99.90;;;;;;5100030;28;20028;-69
2023/08/30 04:57:25;;;;;;;14.70;5.32;;;17.40;99.90;;;;;;5100174;28;20024;-69
2023/08/30 04:59:52;;;;;;;11.88;4.25;;;17.30;99.90;;;;;;5100103;28;20024;-70
2023/08/30 05:02:17;;;;;;;14.23;4.90;;;17.30;99.90;;;;;;5118296;28;20023;-69
2023/08/30 05:04:58;;;;;;;10.93;4.80;;;17.30;99.90;;;;;;5099913;28;20031;-70
2023/08/30 05:07:24;;;;;;;12.07;3.92;;;17.40;99.90;;;;;;5118086;28;20412;-70
2023/08/30 05:09:50;;;;;;;14.57;4.68;;;17.30;99.90;;;;;;5099904;28;20023;-70
2023/08/30 05:12:16;;;;;;;14.15;4.82;;;17.30;99.90;;;;;;5099704;28;20038;-70
2023/08/30 05:14:42;;;;;;;16.38;5.13;;;17.20;99.90;;;;;;5099594;28;20035;-70
2023/08/30 05:17:08;;;;;;;13.10;4.22;;;17.30;99.90;;;;;;5099643;28;20111;-70
2023/08/30 05:19:34;;;;;;;14.98;4.57;;;17.20;99.90;;;;;;5099718;28;20049;-70
2023/08/30 05:22:00;;;;;;;14.20;4.90;;;17.20;99.90;;;;;;5099623;28;20028;-70
2023/08/30 05:24:26;;;;;;;13.13;4.18;;;17.30;99.90;;;;;;5117735;28;20053;-69
2023/08/30 05:26:53;;;;;;;14.30;4.60;;;17.30;99.90;;;;;;5099393;28;20507;-69
2023/08/30 05:29:19;;;;;;;10.32;4.20;;;17.30;99.90;;;;;;5098949;28;20088;-70
2023/08/30 05:31:45;;;;;;;12.90;4.68;;;17.40;99.90;;;;;;5097394;28;20118;-71
2023/08/30 05:34:31;;;;;;;11.63;4.97;;;17.50;99.90;;;;;;5098873;28;20061;-71
2023/08/30 05:37:07;;;;;;;13.00;4.45;;;17.50;99.90;;;;;;5098200;28;20032;-71
2023/08/30 05:39:52;;;;;;;10.80;4.53;;;17.70;99.90;;;;;;5104633;28;20100;-71
2023/08/30 05:42:18;;;;;;;16.52;5.05;;;17.90;99.90;;;;;;5102352;28;20059;-71
2023/08/30 05:44:50;;;;;;;17.48;5.45;;;17.90;99.90;;;;;;5089505;28;20492;-71
2023/08/30 05:47:18;;;;;;;17.00;4.88;;;18.00;99.90;;;;;;5086161;28;20062;-71
2023/08/30 05:49:45;;;;;;;14.32;5.00;;;18.00;99.90;;;;;;5088610;28;20215;-71
2023/08/30 05:52:11;;;;;;;23.20;6.43;;;18.00;99.90;;;;;;5116883;28;20089;-71
2023/08/30 05:54:37;;;;;;;32.63;7.45;;;18.00;99.90;;;;;;5098770;28;20036;-71
2023/08/30 05:57:03;;;;;;;17.02;5.95;;;18.20;99.90;;;;;;5099026;28;20034;-71
2023/08/30 05:59:29;;;;;;;21.95;6.05;;;18.20;99.90;;;;;;5097731;28;20062;-71
2023/08/30 06:01:55;;;;;;;15.90;5.30;;;18.30;99.90;;;;;;5097516;28;20051;-71
2023/08/30 06:04:21;;;;;;;24.08;6.05;;;18.40;99.90;;;;;;5112080;28;20107;-71
2023/08/30 06:06:47;;;;;;;22.50;6.70;;;18.40;99.90;;;;;;5088609;28;20378;-71
2023/08/30 06:09:13;;;;;;;19.27;5.90;;;18.40;99.90;;;;;;5104542;28;20043;-71
2023/08/30 06:11:39;;;;;;;14.63;5.38;;;18.40;99.90;;;;;;5116798;28;20027;-71
2023/08/30 06:14:05;;;;;;;15.98;5.72;;;18.40;99.90;;;;;;5115795;28;20465;-71
2023/08/30 06:16:31;;;;;;;11.40;5.22;;;18.50;99.90;;;;;;5106901;28;20492;-71
2023/08/30 06:18:58;;;;;;;15.00;5.30;;;18.50;99.90;;;;;;5115257;28;20028;-71
2023/08/30 06:21:25;;;;;;;11.23;4.93;;;18.30;99.90;;;;;;5117505;28;20093;-71
2023/08/30 06:23:51;;;;;;;11.15;5.03;;;18.30;99.90;;;;;;5117400;28;20031;-71
2023/08/30 06:26:18;;;;;;;16.40;6.03;;;18.30;99.90;;;;;;5114047;28;20195;-71
2023/08/30 06:28:44;;;;;;;13.05;5.10;;;18.40;99.90;;;;;;5124762;27;20024;-71
2023/08/30 06:31:10;;;;;;;30.02;7.57;;;18.50;99.90;;;;;;5104403;28;20027;-71
2023/08/30 06:33:38;;;;;;;20.02;6.47;;;18.60;99.90;;;;;;5103718;28;20026;-71
2023/08/30 06:36:05;;;;;;;23.17;7.07;;;18.70;99.90;;;;;;5098359;28;20032;-71
2023/08/30 06:38:31;;;;;;;30.77;7.20;;;18.70;99.90;;;;;;5110819;28;20031;-71
2023/08/30 06:41:00;;;;;;;18.83;6.68;;;18.70;99.90;;;;;;5104635;28;20032;-71
2023/08/30 06:43:26;;;;;;;14.70;5.65;;;18.70;99.90;;;;;;5095260;28;20127;-71
2023/08/30 06:45:53;;;;;;;15.18;5.40;;;18.80;99.90;;;;;;5102782;28;20055;-71
2023/08/30 06:48:19;;;;;;;19.52;5.50;;;18.80;99.90;;;;;;5115355;28;20074;-71
2023/08/30 06:50:44;;;;;;;23.02;5.88;;;19.00;99.90;;;;;;5115541;28;20023;-71
2023/08/30 06:53:13;;;;;;;17.33;5.13;;;19.00;99.90;;;;;;5115623;28;20083;-71
2023/08/30 06:55:39;;;;;;;16.10;5.32;;;19.20;99.90;;;;;;5115791;28;20032;-71
2023/08/30 06:58:05;;;;;;;13.07;5.10;;;19.30;99.90;;;;;;5116019;28;20034;-71
2023/08/30 07:00:31;;;;;;;13.95;5.43;;;19.40;99.90;;;;;;5113758;28;20137;-71
2023/08/30 07:02:57;;;;;;;15.73;5.50;;;19.60;99.90;;;;;;5100051;28;20534;-71
2023/08/30 07:05:23;;;;;;;18.20;5.07;;;19.90;99.90;;;;;;5104812;28;20030;-71
2023/08/30 07:07:49;;;;;;;20.98;5.32;;;20.30;99.90;;;;;;5104698;28;20451;-69
2023/08/30 07:10:15;;;;;;;13.73;5.38;;;21.00;99.90;;;;;;5101824;28;20067;-68
2023/08/30 07:12:41;;;;;;;15.57;4.40;;;21.40;99.90;;;;;;5106283;28;20098;-69
2023/08/30 07:15:07;;;;;;;12.13;4.35;;;22.30;99.90;;;;;;5114327;28;20028;-69
2023/08/30 07:17:33;;;;;;;16.05;4.32;;;22.50;98.90;;;;;;5113917;28;20050;-69
2023/08/30 07:20:04;;;;;;;24.60;6.47;;;23.20;97.70;;;;;;5113458;28;20024;-69
2023/08/30 07:22:35;;;;;;;10.63;3.95;;;23.50;96.10;;;;;;5112100;28;20047;-69
2023/08/30 07:25:02;;;;;;;16.52;5.00;;;24.00;93.90;;;;;;5097638;28;20450;-69
2023/08/30 07:27:28;;;;;;;14.10;4.82;;;24.80;91.30;;;;;;5116238;28;20032;-69
2023/08/30 07:29:54;;;;;;;16.35;5.10;;;25.10;85.20;;;;;;5097555;28;20411;-70
2023/08/30 07:32:20;;;;;;;9.95;3.90;;;25.60;81.90;;;;;;5115862;28;20118;-69
2023/08/30 07:34:46;;;;;;;9.05;3.70;;;25.60;70.90;;;;;;5113913;28;20028;-69
2023/08/30 07:37:20;;;;;;;14.13;5.30;;;25.80;69.90;;;;;;5115842;28;20038;-70
2023/08/30 07:39:46;;;;;;;12.02;4.47;;;26.00;63.10;;;;;;5115736;28;20059;-70
2023/08/30 07:42:13;;;;;;;13.38;3.63;;;26.10;66.90;;;;;;5116002;28;20400;-69
2023/08/30 07:44:38;;;;;;;11.30;4.32;;;26.50;63.50;;;;;;5115826;28;20480;-69
2023/08/30 07:47:04;;;;;;;11.68;4.47;;;27.30;63.20;;;;;;5115585;28;20099;-70
2023/08/30 07:49:30;;;;;;;14.55;3.75;;;27.70;59.60;;;;;;5110456;28;20032;-70
2023/08/30 07:51:56;;;;;;;14.85;5.90;;;27.80;59.60;;;;;;5103796;28;20048;-69
2023/08/30 07:54:22;;;;;;;12.70;4.20;;;27.70;58.60;;;;;;5095014;28;20485;-70
2023/08/30 07:56:48;;;;;;;11.90;4.20;;;28.30;58.30;;;;;;5107843;28;20110;-69
2023/08/30 07:59:14;;;;;;;13.02;4.93;;;28.70;55.00;;;;;;5115264;28;20032;-70
2023/08/30 08:01:40;;;;;;;12.57;4.22;;;28.70;56.40;;;;;;5107835;28;20027;-70
2023/08/30 08:04:06;;;;;;;12.73;3.55;;;28.60;53.10;;;;;;5110313;28;20036;-70
2023/08/30 08:06:31;;;;;;;12.05;4.22;;;28.70;53.70;;;;;;5115631;28;20016;-69
2023/08/30 08:08:58;;;;;;;19.30;4.88;;;28.80;50.60;;;;;;5115461;28;20072;-69
2023/08/30 08:11:23;;;;;;;20.30;4.90;;;28.30;50.90;;;;;;5115664;28;20028;-70
2023/08/30 08:13:49;;;;;;;12.68;5.05;;;27.70;52.70;;;;;;5115396;28;20027;-71
2023/08/30 08:16:15;;;;;;;16.33;4.97;;;28.00;51.70;;;;;;5106903;28;20059;-71
2023/08/30 08:18:41;;;;;;;12.02;4.05;;;27.80;51.30;;;;;;5103610;28;20028;-71
2023/08/30 08:21:07;;;;;;;18.83;4.60;;;27.00;49.60;;;;;;5114971;28;20034;-71
2023/08/30 08:23:33;;;;;;;7.90;3.15;;;27.30;52.60;;;;;;5113441;28;20441;-71
2023/08/30 08:25:59;;;;;;;9.27;3.00;;;28.30;52.80;;;;;;5115478;28;20081;-71
2023/08/30 08:28:26;;;;;;;7.80;2.85;;;28.60;47.70;;;;;;5113221;28;20020;-71
2023/08/30 08:30:52;;;;;;;9.10;3.58;;;28.70;47.30;;;;;;5103738;28;20024;-71
2023/08/30 08:33:18;;;;;;;7.97;2.83;;;28.70;46.00;;;;;;5115184;28;20438;-71
2023/08/30 08:35:44;;;;;;;10.32;3.70;;;29.20;45.50;;;;;;5115271;28;20499;-71
2023/08/30 08:38:11;;;;;;;6.10;2.50;;;29.90;43.50;;;;;;5115184;28;20032;-71
2023/08/30 08:40:39;;;;;;;11.00;3.63;;;30.20;41.10;;;;;;5115348;28;20028;-71
2023/08/30 08:43:05;;;;;;;13.23;4.25;;;29.40;40.50;;;;;;5115210;28;20031;-71
2023/08/30 08:45:35;;;;;;;9.20;3.45;;;29.10;43.30;;;;;;5115007;28;20020;-72
2023/08/30 08:48:05;;;;;;;10.32;3.97;;;29.80;41.60;;;;;;5115141;28;20054;-71
2023/08/30 08:50:34;;;;;;;8.90;3.50;;;29.70;41.10;;;;;;5079952;28;20043;-72
2023/08/30 08:53:01;;;;;;;10.60;3.90;;;29.00;42.00;;;;;;5114632;28;20039;-71
2023/08/30 08:55:30;;;;;;;11.48;3.72;;;30.00;41.00;;;;;;5115238;28;20031;-71
2023/08/30 08:57:59;;;;;;;19.20;5.40;;;30.70;42.80;;;;;;5114484;28;20031;-71
2023/08/30 09:00:26;;;;;;;14.32;4.70;;;31.20;39.80;;;;;;5114998;28;20020;-71
2023/08/30 09:02:54;;;;;;;14.52;4.65;;;31.80;39.70;;;;;;5108491;28;20040;-71
2023/08/30 09:05:27;;;;;;;16.73;4.35;;;31.50;36.30;;;;;;5103356;28;20027;-71
2023/08/30 09:07:54;;;;;;;33.92;7.15;;;31.60;37.30;;;;;;5103299;28;20020;-71
2023/08/30 09:10:24;;;;;;;11.02;4.57;;;31.70;36.60;;;;;;5100884;28;20035;-70
2023/08/30 09:12:50;;;;;;;8.40;3.50;;;31.30;34.90;;;;;;5096073;28;20571;-71
2023/08/30 09:15:17;;;;;;;16.10;4.10;;;30.30;35.00;;;;;;5104525;28;20369;-71
2023/08/30 09:17:43;;;;;;;14.15;4.35;;;30.40;35.30;;;;;;5106373;28;20029;-71
2023/08/30 09:20:11;;;;;;;13.10;3.70;;;30.80;36.00;;;;;;5099364;28;20031;-71
2023/08/30 09:22:42;;;;;;;17.05;4.20;;;31.40;35.60;;;;;;5117503;28;20035;-71
2023/08/30 09:25:09;;;;;;;15.57;4.50;;;31.70;33.80;;;;;;5117399;28;20019;-71
2023/08/30 09:27:35;;;;;;;13.55;4.38;;;31.60;31.00;;;;;;5117039;28;20024;-72
2023/08/30 09:30:04;;;;;;;17.35;5.10;;;31.30;32.40;;;;;;5113063;28;20031;-72
2023/08/30 09:32:30;;;;;;;9.35;3.72;;;31.20;31.10;;;;;;5105236;28;20108;-71
2023/08/30 09:34:55;;;;;;;9.80;3.97;;;30.90;33.30;;;;;;5117199;28;20571;-71
2023/08/30 09:37:26;;;;;;;13.25;5.13;;;31.50;33.00;;;;;;5117484;28;20429;-71
2023/08/30 09:39:52;;;;;;;17.48;9.45;;;32.10;31.30;;;;;;5117105;28;20027;-71
2023/08/30 09:42:19;;;;;;;15.80;5.47;;;32.30;29.40;;;;;;5110444;28;20051;-71
2023/08/30 09:44:45;;;;;;;11.02;3.05;;;32.40;28.20;;;;;;5103700;28;20035;-71
2023/08/30 09:47:13;;;;;;;11.73;4.03;;;32.40;29.30;;;;;;5096341;28;20028;-71
2023/08/30 09:49:45;;;;;;;7.88;3.20;;;32.90;28.60;;;;;;5102454;28;20507;-70
2023/08/30 09:52:14;;;;;;;11.85;4.20;;;33.20;27.20;;;;;;5117112;28;20066;-72
2023/08/30 09:54:43;;;;;;;7.40;3.00;;;32.50;29.20;;;;;;5117068;28;20020;-72
2023/08/30 09:57:10;;;;;;;7.55;3.17;;;33.00;29.30;;;;;;5117215;28;20028;-72
2023/08/30 09:59:39;;;;;;;8.52;2.90;;;32.50;27.50;;;;;;5112496;28;20032;-72
2023/08/30 10:02:05;;;;;;;7.78;2.33;;;33.10;29.30;;;;;;5105402;28;20031;-72
2023/08/30 10:04:33;;;;;;;11.65;4.07;;;33.10;28.30;;;;;;5115901;28;20123;-70
2023/08/30 10:06:59;;;;;;;9.10;3.45;;;33.60;25.50;;;;;;5115297;28;20031;-71
2023/08/30 10:09:25;;;;;;;14.85;4.80;;;32.90;25.70;;;;;;5116591;28;20020;-72
2023/08/30 10:11:57;;;;;;;9.68;3.35;;;32.70;26.10;;;;;;5116537;28;20032;-71
2023/08/30 10:14:24;;;;;;;6.50;2.70;;;31.80;28.00;;;;;;5115682;28;20036;-72
2023/08/30 10:16:59;;;;;;;6.50;3.28;;;32.30;28.10;;;;;;5104064;28;20173;-71
2023/08/30 10:19:30;;;;;;;8.02;3.17;;;31.80;28.10;;;;;;5116767;28;20028;-71
2023/08/30 10:22:04;;;;;;;8.30;3.05;;;31.40;27.80;;;;;;5116200;28;20473;-71
2023/08/30 10:24:37;;;;;;;6.35;2.95;;;31.00;28.50;;;;;;5115992;28;20047;-71
2023/08/30 10:27:06;;;;;;;8.00;3.15;;;30.90;30.00;;;;;;5116722;28;20031;-70
2023/08/30 10:29:35;;;;;;;8.52;4.10;;;30.80;29.10;;;;;;5117110;28;20473;-70
2023/08/30 10:32:07;;;;;;;8.60;3.15;;;30.70;29.20;;;;;;5117200;28;20110;-71
2023/08/30 10:34:34;;;;;;;8.60;3.28;;;30.50;30.70;;;;;;5117305;28;20118;-70
2023/08/30 10:37:01;;;;;;;10.05;3.20;;;30.40;30.30;;;;;;5116485;28;20151;-70
2023/08/30 10:39:41;;;;;;;12.63;3.50;;;30.40;32.60;;;;;;5109516;28;20409;-70
2023/08/30 10:42:14;;;;;;;12.55;4.13;;;30.80;30.30;;;;;;5109885;28;20031;-71
2023/08/30 10:44:50;;;;;;;7.88;2.75;;;30.80;30.00;;;;;;5115920;28;20030;-71
2023/08/30 10:47:37;;;;;;;6.97;3.22;;;30.90;30.50;;;;;;5116193;28;20032;-71
2023/08/30 10:50:08;;;;;;;7.55;3.83;;;31.40;29.70;;;;;;5114206;28;20046;-71
2023/08/30 10:52:35;;;;;;;8.32;3.25;;;32.10;28.90;;;;;;5115590;28;20034;-71
2023/08/30 10:55:15;;;;;;;7.75;3.15;;;32.50;28.00;;;;;;5111978;28;20620;-72
2023/08/30 10:57:45;;;;;;;4.60;2.70;;;32.90;29.20;;;;;;5113973;28;20023;-71
2023/08/30 11:00:18;;;;;;;10.38;3.38;;;32.70;26.40;;;;;;5115344;28;20020;-71
2023/08/30 11:02:53;;;;;;;8.43;3.47;;;33.60;27.80;;;;;;5113401;28;20020;-71
2023/08/30 11:05:25;;;;;;;11.80;4.10;;;33.20;25.60;;;;;;5114311;28;20100;-71
2023/08/30 11:07:52;;;;;;;22.40;10.88;;;32.90;26.70;;;;;;5111949;28;20032;-71
2023/08/30 11:10:19;;;;;;;10.07;4.35;;;33.30;26.30;;;;;;5115439;28;20028;-72
2023/08/30 11:12:46;;;;;;;10.05;4.70;;;33.90;26.20;;;;;;5114976;28;20016;-72
2023/08/30 11:15:14;;;;;;;7.45;3.70;;;34.20;25.40;;;;;;5114639;28;20110;-73
2023/08/30 11:17:41;;;;;;;9.82;3.72;;;34.30;24.50;;;;;;5115019;28;20027;-72
2023/08/30 11:20:09;;;;;;;11.00;4.65;;;33.10;26.20;;;;;;5114967;28;20622;-72
2023/08/30 11:22:40;;;;;;;9.68;4.30;;;33.60;25.80;;;;;;5112594;28;20015;-71
2023/08/30 11:25:08;;;;;;;9.93;3.70;;;33.50;24.40;;;;;;5115004;28;20033;-72
2023/08/30 11:27:34;;;;;;;4.25;1.95;;;33.00;24.00;;;;;;5112307;28;20392;-71
2023/08/30 11:30:05;;;;;;;10.68;2.78;;;33.80;24.60;;;;;;5114575;28;20012;-73
2023/08/30 11:32:39;;;;;;;8.27;3.22;;;34.20;23.00;;;;;;5114702;28;20020;-71
2023/08/30 11:35:06;;;;;;;7.97;3.20;;;34.10;23.60;;;;;;5114050;28;20019;-72
2023/08/30 11:37:32;;;;;;;9.43;3.30;;;34.00;22.90;;;;;;5112138;28;20027;-72
2023/08/30 11:39:59;;;;;;;7.97;3.58;;;33.10;22.40;;;;;;5114962;28;20053;-71
2023/08/30 11:42:25;;;;;;;9.38;3.90;;;33.00;23.60;;;;;;5113487;28;20020;-72
2023/08/30 11:44:52;;;;;;;11.40;3.63;;;32.50;23.40;;;;;;5112894;28;20038;-72
2023/08/30 11:47:25;;;;;;;8.02;3.28;;;31.60;24.50;;;;;;5113291;28;20076;-70
2023/08/30 11:49:54;;;;;;;7.32;2.70;;;32.40;24.40;;;;;;5111670;28;20091;-73
2023/08/30 11:52:21;;;;;;;9.25;3.60;;;32.50;23.60;;;;;;5110387;28;20488;-71
2023/08/30 11:54:49;;;;;;;16.17;4.97;;;32.20;24.50;;;;;;5091815;28;20036;-71
2023/08/30 11:57:15;;;;;;;19.67;5.72;;;32.40;24.90;;;;;;5090092;28;20050;-71
2023/08/30 11:59:41;;;;;;;12.32;3.58;;;31.90;24.80;;;;;;5109437;27;20043;-71
2023/08/30 12:02:08;;;;;;;12.32;4.43;;;31.80;25.70;;;;;;5097838;28;20068;-72
2023/08/30 12:04:41;;;;;;;13.55;4.07;;;31.20;26.40;;;;;;5045425;28;20085;-70
2023/08/30 12:07:08;;;;;;;16.65;4.35;;;31.40;26.10;;;;;;5082634;28;20151;-70
2023/08/30 12:09:34;;;;;;;10.68;3.53;;;32.20;26.10;;;;;;5080947;28;20381;-72
2023/08/30 12:12:11;;;;;;;8.15;3.17;;;32.10;24.70;;;;;;5041216;28;20057;-70
2023/08/30 12:14:37;;;;;;;7.57;2.67;;;32.30;24.90;;;;;;5083157;28;20036;-72
2023/08/30 12:17:04;;;;;;;9.30;3.38;;;32.50;23.80;;;;;;5099799;28;20051;-71
2023/08/30 12:19:31;;;;;;;14.02;4.53;;;33.00;26.90;;;;;;5114698;28;20036;-73
2023/08/30 12:22:04;;;;;;;11.40;5.18;;;33.50;24.40;;;;;;5103321;28;20131;-71
2023/08/30 12:24:44;;;;;;;15.45;6.00;;;33.50;25.50;;;;;;5068170;28;20474;-69
2023/08/30 12:27:10;;;;;;;12.93;4.88;;;33.60;25.20;;;;;;4992751;28;20038;-71
2023/08/30 12:29:36;;;;;;;10.27;3.83;;;33.60;25.00;;;;;;5068066;28;20043;-70
2023/08/30 12:32:02;;;;;;;8.77;3.72;;;33.90;27.50;;;;;;5040812;28;20048;-71
2023/08/30 12:34:28;;;;;;;27.85;5.10;;;33.90;29.20;;;;;;5061739;28;20063;-71
2023/08/30 12:36:55;;;;;;;13.18;4.35;;;33.30;30.00;;;;;;5090976;28;20044;-72
2023/08/30 12:39:21;;;;;;;6.43;2.90;;;33.00;30.90;;;;;;5070841;28;20557;-71
2023/08/30 12:41:47;;;;;;;8.50;3.17;;;32.80;30.00;;;;;;5080091;28;20040;-70
2023/08/30 12:44:13;;;;;;;10.30;3.47;;;32.00;32.20;;;;;;5071028;28;20043;-71